Time;durP1;ratioP1;P1;durP2;ratioP2;P2;SDS_P1;SDS_P2;PMS_P1;PMS_P2;Temp;Humidity;BMP_temperature;BMP_pressure;BME280_temperature;BME280_humidity;BME280_pressure;Samples;Min_cycle;Max_cycle;Signal;HPM_P1;HPM_P2
2022/06/02 00:01:33;;;;;;;;;;;;;;;;;;5123536;28;810;-78
2022/06/02 00:04:10;;;;;;;;;;;;;;;;;;5102994;28;1218;-78
2022/06/02 00:06:42;;;;;;;;;;;;;;;;;;5105479;28;1419;-78
2022/06/02 00:09:37;;;;;;;;;;;;;;;;;;5097275;28;1968;-78
2022/06/02 00:12:08;;;;;;;;;;;;;;;;;;5115947;28;1111;-78
2022/06/02 00:14:46;;;;;;;;;;;;;;;;;;5104193;28;1233;-78
2022/06/02 00:17:23;;;;;;;;;;;;;;;;;;5095453;28;1276;-78
2022/06/02 00:19:55;;;;;;;;;;;;;;;;;;5079566;28;1283;-78
2022/06/02 00:22:32;;;;;;;;;;;;;;;;;;5085830;28;1092;-78
2022/06/02 00:25:02;;;;;;;;;;;;;;;;;;5100530;28;1085;-77
2022/06/02 00:27:35;;;;;;;;;;;;;;;;;;5087123;28;1220;-78
2022/06/02 00:30:07;;;;;;;;;;;;;;;;;;5086308;28;1943;-78
2022/06/02 00:32:32;;;;;;;;;;;;;;;;;;5088406;28;1200;-78
2022/06/02 00:35:00;;;;;;;;;;;;;;;;;;5100637;28;1212;-78
2022/06/02 00:37:32;;;;;;;;;;;;;;;;;;5086490;28;1191;-78
2022/06/02 00:39:58;;;;;;;;;;;;;;;;;;5099016;28;1049;-78
2022/06/02 00:42:24;;;;;;;;;;;;;;;;;;5066112;28;1242;-78
2022/06/02 00:44:54;;;;;;;;;;;;;;;;;;5087009;28;1376;-78
2022/06/02 00:47:37;;;;;;;;;;;;;;;;;;5105554;28;1152;-78
2022/06/02 00:50:06;;;;;;;;;;;;;;;;;;5084938;28;1877;-78
2022/06/02 00:52:50;;;;;;;;;;;;;;;;;;5085314;28;1193;-78
2022/06/02 00:58:16;;;;;;;;;;;;;;;;;;5127511;27;953;-79
2022/06/02 01:00:44;;;;;;;;;;;;;;;;;;5106397;27;1301;-79
2022/06/02 01:03:12;;;;;;;;;;;;;;;;;;5126499;27;1135;-78
2022/06/02 01:05:57;;;;;;;;;;;;;;;;;;5107479;27;1178;-79
2022/06/02 01:08:49;;;;;;;;;;;;;;;;;;5106563;27;1901;-79
2022/06/02 01:11:33;;;;;;;;;;;;;;;;;;5101135;27;1225;-79
2022/06/02 01:13:58;;;;;;;;;;;;;;;;;;5106162;27;1222;-79
2022/06/02 01:16:44;;;;;;;;;;;;;;;;;;5105208;27;1297;-79
2022/06/02 01:19:30;;;;;;;;;;;;;;;;;;5105238;27;1372;-79
2022/06/02 01:22:15;;;;;;;;;;;;;;;;;;5123178;27;1157;-80
2022/06/02 01:25:01;;;;;;;;;;;;;;;;;;5106611;27;1313;-79
2022/06/02 01:27:40;;;;;;;;;;;;;;;;;;5106752;27;1174;-79
2022/06/02 01:30:05;;;;;;;;;;;;;;;;;;5104854;27;1886;-79
2022/06/02 01:32:39;;;;;;;;;;;;;;;;;;5107562;27;1456;-79
2022/06/02 01:35:15;;;;;;;;;;;;;;;;;;5104512;27;1289;-79
2022/06/02 01:37:57;;;;;;;;;;;;;;;;;;5104435;27;1206;-79
2022/06/02 01:40:40;;;;;;;;;;;;;;;;;;5103084;27;1242;-79
2022/06/02 01:43:05;;;;;;;;;;;;;;;;;;5104036;27;1160;-79
2022/06/02 01:45:40;;;;;;;;;;;;;;;;;;5106379;27;1218;-79
2022/06/02 01:48:18;;;;;;;;;;;;;;;;;;5094258;28;1874;-80
2022/06/02 01:50:46;;;;;;;;;;;;;;;;;;5097789;27;1309;-79
2022/06/02 01:53:37;;;;;;;;;;;;;;;;;;5094426;28;1289;-80
2022/06/02 01:56:21;;;;;;;;;;;;;;;;;;5098269;28;1143;-78
2022/06/02 01:58:59;;;;;;;;;;;;;;;;;;5102370;27;1372;-80
2022/06/02 02:01:30;;;;;;;;;;;;;;;;;;5127490;27;889;-79
2022/06/02 02:04:14;;;;;;;;;;;;;;;;;;5109095;27;1302;-79
2022/06/02 02:06:45;;;;;;;;;;;;;;;;;;5110301;27;1336;-80
2022/06/02 02:09:14;;;;;;;;;;;;;;;;;;5105881;27;1961;-79
2022/06/02 02:11:45;;;;;;;;;;;;;;;;;;5104501;27;1359;-80
2022/06/02 02:14:20;;;;;;;;;;;;;;;;;;5105675;27;1253;-79
2022/06/02 02:16:51;;;;;;;;;;;;;;;;;;5127618;27;864;-80
2022/06/02 02:19:21;;;;;;;;;;;;;;;;;;5124005;27;829;-79
2022/06/02 02:22:05;;;;;;;;;;;;;;;;;;5107502;27;1282;-80
2022/06/02 02:24:46;;;;;;;;;;;;;;;;;;5106816;27;1199;-80
2022/06/02 02:27:20;;;;;;;;;;;;;;;;;;5105520;27;1393;-80
2022/06/02 02:30:01;;;;;;;;;;;;;;;;;;5114367;27;1890;-79
2022/06/02 02:32:53;;;;;;;;;;;;;;;;;;5087307;28;1147;-79
2022/06/02 02:35:27;;;;;;;;;;;;;;;;;;5058663;28;1391;-80
2022/06/02 02:37:56;;;;;;;;;;;;;;;;;;5105957;28;1208;-79
2022/06/02 02:40:27;;;;;;;;;;;;;;;;;;5082888;28;1235;-80
2022/06/02 02:42:56;;;;;;;;;;;;;;;;;;5087774;28;1309;-80
2022/06/02 02:45:25;;;;;;;;;;;;;;;;;;5086058;28;1128;-80
2022/06/02 02:48:16;;;;;;;;;;;;;;;;;;5105291;27;1893;-78
2022/06/02 02:50:46;;;;;;;;;;;;;;;;;;5081999;28;1312;-80
2022/06/02 02:53:23;;;;;;;;;;;;;;;;;;5082979;28;1330;-77
2022/06/02 02:55:52;;;;;;;;;;;;;;;;;;5080180;28;1313;-80
2022/06/02 02:58:24;;;;;;;;;;;;;;;;;;5084406;28;1376;-80
2022/06/02 03:01:01;;;;;;;;;;;;;;;;;;5113492;27;1267;-80
2022/06/02 03:03:31;;;;;;;;;;;;;;;;;;5107068;27;1507;-79
2022/06/02 03:05:59;;;;;;;;;;;;;;;;;;5125423;27;1171;-80
2022/06/02 03:08:44;;;;;;;;;;;;;;;;;;5083319;28;2049;-80
2022/06/02 03:11:15;;;;;;;;;;;;;;;;;;5080237;28;1321;-79
2022/06/02 03:13:54;;;;;;;;;;;;;;;;;;5087072;28;1318;-79
2022/06/02 03:16:21;;;;;;;;;;;;;;;;;;5114029;27;1105;-79
2022/06/02 03:18:46;;;;;;;;;;;;;;;;;;5125331;27;1124;-79
2022/06/02 03:21:30;;;;;;;;;;;;;;;;;;5100412;27;1198;-79
2022/06/02 03:24:14;;;;;;;;;;;;;;;;;;5089375;28;1182;-79
2022/06/02 03:26:58;;;;;;;;;;;;;;;;;;5098524;28;1203;-79
2022/06/02 03:29:35;;;;;;;;;;;;;;;;;;5083630;28;1951;-80
2022/06/02 03:32:10;;;;;;;;;;;;;;;;;;5082008;28;1223;-77
2022/06/02 03:34:41;;;;;;;;;;;;;;;;;;5086676;28;1195;-77
2022/06/02 03:37:20;;;;;;;;;;;;;;;;;;5080190;28;1281;-78
2022/06/02 03:39:48;;;;;;;;;;;;;;;;;;5099278;27;1101;-77
2022/06/02 03:42:14;;;;;;;;;;;;;;;;;;5078132;28;1495;-77
2022/06/02 03:44:43;;;;;;;;;;;;;;;;;;5085654;28;1227;-80
2022/06/02 03:47:08;;;;;;;;;;;;;;;;;;5081098;28;1179;-77
2022/06/02 03:49:43;;;;;;;;;;;;;;;;;;5085913;28;1906;-80
2022/06/02 03:52:14;;;;;;;;;;;;;;;;;;5080510;28;1314;-77
2022/06/02 03:54:47;;;;;;;;;;;;;;;;;;5084901;28;1336;-79
2022/06/02 03:57:13;;;;;;;;;;;;;;;;;;5081057;28;1224;-80
2022/06/02 04:00:01;;;;;;;;;;;;;;;;;;5088048;28;1348;-76
2022/06/02 04:02:50;;;;;;;;;;;;;;;;;;5084852;28;1163;-77
2022/06/02 04:05:33;;;;;;;;;;;;;;;;;;5074503;28;1326;-79
2022/06/02 04:08:04;;;;;;;;;;;;;;;;;;5105050;28;1906;-79
2022/06/02 04:11:00;;;;;;;;;;;;;;;;;;5083821;28;1161;-79
2022/06/02 04:13:39;;;;;;;;;;;;;;;;;;5028677;28;1122;-79
2022/06/02 04:16:39;;;;;;;;;;;;;;;;;;5087381;27;1291;-79
2022/06/02 04:22:07;;;;;;;;;;;;;;;;;;5122657;27;1504;-79
2022/06/02 04:24:40;;;;;;;;;;;;;;;;;;5098275;28;1239;-79
2022/06/02 04:27:06;;;;;;;;;;;;;;;;;;5086930;28;1255;-79
2022/06/02 04:29:40;;;;;;;;;;;;;;;;;;5094589;27;1870;-79
2022/06/02 04:32:08;;;;;;;;;;;;;;;;;;5109169;27;1182;-79
2022/06/02 04:35:12;;;;;;;;;;;;;;;;;;5091287;28;1254;-79
2022/06/02 04:37:41;;;;;;;;;;;;;;;;;;5040842;28;1128;-79
2022/06/02 04:40:36;;;;;;;;;;;;;;;;;;5020798;28;1192;-79
2022/06/02 04:43:24;;;;;;;;;;;;;;;;;;5077676;27;1286;-79
2022/06/02 04:45:53;;;;;;;;;;;;;;;;;;5067754;28;1155;-79
2022/06/02 04:48:30;;;;;;;;;;;;;;;;;;5065984;28;1944;-79
2022/06/02 04:50:55;;;;;;;;;;;;;;;;;;5067172;28;1346;-79
2022/06/02 04:53:27;;;;;;;;;;;;;;;;;;5063627;28;1262;-79
2022/06/02 04:56:03;;;;;;;;;;;;;;;;;;5079962;28;1008;-79
2022/06/02 04:58:51;;;;;;;;;;;;;;;;;;5063974;28;1245;-79
2022/06/02 05:01:35;;;;;;;;;;;;;;;;;;5075083;28;1111;-79
2022/06/02 05:04:20;;;;;;;;;;;;;;;;;;5066185;28;1231;-79
2022/06/02 05:06:48;;;;;;;;;;;;;;;;;;5066270;28;1310;-79
2022/06/02 05:09:22;;;;;;;;;;;;;;;;;;5062020;28;1918;-79
2022/06/02 05:12:06;;;;;;;;;;;;;;;;;;5070311;28;1145;-79
2022/06/02 05:14:54;;;;;;;;;;;;;;;;;;5088960;27;1149;-79
2022/06/02 05:17:21;;;;;;;;;;;;;;;;;;5094356;27;1244;-79
2022/06/02 05:19:52;;;;;;;;;;;;;;;;;;5099485;28;1211;-79
2022/06/02 05:22:23;;;;;;;;;;;;;;;;;;5099428;28;1092;-77
2022/06/02 05:25:07;;;;;;;;;;;;;;;;;;5104520;27;1215;-79
2022/06/02 05:27:36;;;;;;;;;;;;;;;;;;5100820;27;1248;-79
2022/06/02 05:30:19;;;;;;;;;;;;;;;;;;5123271;27;1968;-79
2022/06/02 05:32:54;;;;;;;;;;;;;;;;;;5100477;28;1316;-79
2022/06/02 05:35:38;;;;;;;;;;;;;;;;;;5084470;28;1366;-77
2022/06/02 05:38:23;;;;;;;;;;;;;;;;;;5086551;28;1369;-79
2022/06/02 05:40:59;;;;;;;;;;;;;;;;;;5081361;28;1220;-79
2022/06/02 05:43:39;;;;;;;;;;;;;;;;;;5084460;28;1183;-79
2022/06/02 05:46:07;;;;;;;;;;;;;;;;;;5090899;27;1159;-79
2022/06/02 05:48:54;;;;;;;;;;;;;;;;;;5122081;27;1946;-79
2022/06/02 05:51:29;;;;;;;;;;;;;;;;;;5103193;27;1189;-79
2022/06/02 05:54:17;;;;;;;;;;;;;;;;;;5123283;27;1182;-79
2022/06/02 05:56:42;;;;;;;;;;;;;;;;;;5100368;27;1261;-79
2022/06/02 05:59:26;;;;;;;;;;;;;;;;;;5123769;27;1136;-79
2022/06/02 06:01:58;;;;;;;;;;;;;;;;;;5106121;27;1178;-78
2022/06/02 06:04:48;;;;;;;;;;;;;;;;;;5102498;27;1201;-79
2022/06/02 06:07:20;;;;;;;;;;;;;;;;;;5118219;27;1168;-79
2022/06/02 06:10:05;;;;;;;;;;;;;;;;;;5105838;27;1969;-80
2022/06/02 06:12:36;;;;;;;;;;;;;;;;;;5101826;27;1171;-80
2022/06/02 06:15:06;;;;;;;;;;;;;;;;;;5119716;27;1210;-80
2022/06/02 06:17:32;;;;;;;;;;;;;;;;;;5119123;27;1226;-77
2022/06/02 06:20:07;;;;;;;;;;;;;;;;;;5104265;27;1222;-80
2022/06/02 06:22:35;;;;;;;;;;;;;;;;;;5102041;27;1332;-79
2022/06/02 06:25:04;;;;;;;;;;;;;;;;;;5105100;27;1158;-80
2022/06/02 06:27:41;;;;;;;;;;;;;;;;;;5099255;27;1174;-79
2022/06/02 06:30:19;;;;;;;;;;;;;;;;;;5120969;27;1947;-79
2022/06/02 06:32:51;;;;;;;;;;;;;;;;;;5081509;28;1121;-78
2022/06/02 06:35:25;;;;;;;;;;;;;;;;;;5101266;28;1121;-78
2022/06/02 06:37:50;;;;;;;;;;;;;;;;;;5081052;28;1388;-78
2022/06/02 06:40:22;;;;;;;;;;;;;;;;;;5081380;28;1202;-78
2022/06/02 06:43:03;;;;;;;;;;;;;;;;;;5082043;28;1275;-78
2022/06/02 06:45:31;;;;;;;;;;;;;;;;;;5083052;28;1168;-78
2022/06/02 06:48:01;;;;;;;;;;;;;;;;;;5084739;28;1906;-78
2022/06/02 06:50:36;;;;;;;;;;;;;;;;;;5100572;28;1266;-78
2022/06/02 06:53:01;;;;;;;;;;;;;;;;;;5081840;28;1202;-78
2022/06/02 06:55:41;;;;;;;;;;;;;;;;;;5079716;28;1197;-77
2022/06/02 06:58:15;;;;;;;;;;;;;;;;;;5082920;28;1140;-77
2022/06/02 07:00:46;;;;;;;;;;;;;;;;;;5100578;28;1242;-78
2022/06/02 07:03:18;;;;;;;;;;;;;;;;;;5100559;28;1175;-77
2022/06/02 07:05:51;;;;;;;;;;;;;;;;;;5084433;28;1302;-77
2022/06/02 07:08:36;;;;;;;;;;;;;;;;;;5102070;28;1960;-78
2022/06/02 07:14:11;;;;;;;;;;;;;;;;;;5104108;28;673;-77
2022/06/02 07:16:41;;;;;;;;;;;;;;;;;;5097710;28;841;-77
2022/06/02 07:19:39;;;;;;;;;;;;;;;;;;5086494;28;1195;-77
2022/06/02 07:22:17;;;;;;;;;;;;;;;;;;5049184;28;1516;-78
2022/06/02 07:24:45;;;;;;;;;;;;;;;;;;5083295;28;1131;-78
2022/06/02 07:27:16;;;;;;;;;;;;;;;;;;5081476;28;1281;-77
2022/06/02 07:30:01;;;;;;;;;;;;;;;;;;5084406;28;1885;-77
2022/06/02 07:32:49;;;;;;;;;;;;;;;;;;5083836;28;1239;-77
2022/06/02 07:35:27;;;;;;;;;;;;;;;;;;5084346;28;1184;-78
2022/06/02 07:38:12;;;;;;;;;;;;;;;;;;5080643;28;1151;-78
2022/06/02 07:40:57;;;;;;;;;;;;;;;;;;5091380;28;1234;-79
2022/06/02 07:43:22;;;;;;;;;;;;;;;;;;5122858;27;1215;-79
2022/06/02 07:46:06;;;;;;;;;;;;;;;;;;5116693;28;1096;-79
2022/06/02 07:48:48;;;;;;;;;;;;;;;;;;5082332;28;1882;-80
2022/06/02 07:51:18;;;;;;;;;;;;;;;;;;5102167;28;1073;-79
2022/06/02 07:54:01;;;;;;;;;;;;;;;;;;5118288;28;1180;-79
2022/06/02 07:56:48;;;;;;;;;;;;;;;;;;5076346;28;1327;-78
2022/06/02 07:59:28;;;;;;;;;;;;;;;;;;5120456;28;1242;-79
2022/06/02 08:02:10;;;;;;;;;;;;;;;;;;5104852;28;1407;-80
2022/06/02 08:04:53;;;;;;;;;;;;;;;;;;5123691;28;1155;-79
2022/06/02 08:07:39;;;;;;;;;;;;;;;;;;5102068;28;1284;-79
2022/06/02 08:10:15;;;;;;;;;;;;;;;;;;5082645;28;1961;-78
2022/06/02 08:12:41;;;;;;;;;;;;;;;;;;5099915;28;1191;-79
2022/06/02 08:15:15;;;;;;;;;;;;;;;;;;5093912;28;1156;-80
2022/06/02 08:17:48;;;;;;;;;;;;;;;;;;5079760;28;1282;-79
2022/06/02 08:20:33;;;;;;;;;;;;;;;;;;5083393;28;1199;-79
2022/06/02 08:23:17;;;;;;;;;;;;;;;;;;5081195;28;1332;-77
2022/06/02 08:25:49;;;;;;;;;;;;;;;;;;5079498;28;1419;-77
2022/06/02 08:28:33;;;;;;;;;;;;;;;;;;5081079;28;1897;-80
2022/06/02 08:31:07;;;;;;;;;;;;;;;;;;5103399;28;1140;-80
2022/06/02 08:33:51;;;;;;;;;;;;;;;;;;5081997;28;1348;-80
2022/06/02 08:36:20;;;;;;;;;;;;;;;;;;5083869;28;1369;-80
2022/06/02 08:39:03;;;;;;;;;;;;;;;;;;5090051;28;1179;-80
2022/06/02 08:41:32;;;;;;;;;;;;;;;;;;5121819;27;1167;-79
2022/06/02 08:44:25;;;;;;;;;;;;;;;;;;5105384;27;1194;-80
2022/06/02 08:46:53;;;;;;;;;;;;;;;;;;5107324;27;1128;-79
2022/06/02 08:49:28;;;;;;;;;;;;;;;;;;5087415;28;1897;-80
2022/06/02 08:52:06;;;;;;;;;;;;;;;;;;5083982;28;1183;-80
2022/06/02 08:54:46;;;;;;;;;;;;;;;;;;5112920;27;1153;-80
2022/06/02 08:57:30;;;;;;;;;;;;;;;;;;5102726;27;1325;-79
2022/06/02 08:59:56;;;;;;;;;;;;;;;;;;5106677;27;1232;-80
2022/06/02 09:02:40;;;;;;;;;;;;;;;;;;5102665;27;1202;-80
2022/06/02 09:05:34;;;;;;;;;;;;;;;;;;5124163;27;1120;-80
2022/06/02 09:08:03;;;;;;;;;;;;;;;;;;5092922;27;1216;-80
2022/06/02 09:10:37;;;;;;;;;;;;;;;;;;5109243;27;1298;-79
2022/06/02 09:13:11;;;;;;;;;;;;;;;;;;5081289;28;1361;-80
2022/06/02 09:15:46;;;;;;;;;;;;;;;;;;5102499;28;1121;-78
2022/06/02 09:18:30;;;;;;;;;;;;;;;;;;5086515;28;1341;-79
2022/06/02 09:21:01;;;;;;;;;;;;;;;;;;5084353;28;1302;-79
2022/06/02 09:23:41;;;;;;;;;;;;;;;;;;5105481;28;1120;-78
2022/06/02 09:26:07;;;;;;;;;;;;;;;;;;5085721;28;1400;-79
2022/06/02 09:28:42;;;;;;;;;;;;;;;;;;5084427;27;1939;-79
2022/06/02 09:31:08;;;;;;;;;;;;;;;;;;5106713;27;1344;-79
2022/06/02 09:33:52;;;;;;;;;;;;;;;;;;5107118;27;1223;-79
2022/06/02 09:36:30;;;;;;;;;;;;;;;;;;5105306;27;1217;-79
2022/06/02 09:39:13;;;;;;;;;;;;;;;;;;5088699;28;1170;-79
2022/06/02 09:41:57;;;;;;;;;;;;;;;;;;5104275;27;1195;-79
2022/06/02 09:44:29;;;;;;;;;;;;;;;;;;5105549;27;1315;-79
2022/06/02 09:46:58;;;;;;;;;;;;;;;;;;5121619;27;1099;-79
2022/06/02 09:49:23;;;;;;;;;;;;;;;;;;5114399;27;1962;-77
2022/06/02 09:51:48;;;;;;;;;;;;;;;;;;5091340;28;1278;-77
2022/06/02 09:54:32;;;;;;;;;;;;;;;;;;5082070;28;1344;-77
2022/06/02 10:00:23;;;;;;;;;;;;;;;;;;5098200;28;1002;-77
2022/06/02 10:03:04;;;;;;;;;;;;;;;;;;5060969;28;1231;-77
2022/06/02 10:05:49;;;;;;;;;;;;;;;;;;5103213;28;1220;-77
2022/06/02 10:08:20;;;;;;;;;;;;;;;;;;5100265;27;1970;-77
2022/06/02 10:11:04;;;;;;;;;;;;;;;;;;5122169;27;1334;-77
2022/06/02 10:13:32;;;;;;;;;;;;;;;;;;5101149;28;1174;-79
2022/06/02 10:16:16;;;;;;;;;;;;;;;;;;5103598;28;1085;-78
2022/06/02 10:19:00;;;;;;;;;;;;;;;;;;5091835;27;1200;-79
2022/06/02 10:21:52;;;;;;;;;;;;;;;;;;5106822;27;1300;-79
2022/06/02 10:24:30;;;;;;;;;;;;;;;;;;5121975;27;1119;-84
2022/06/02 10:27:03;;;;;;;;;;;;;;;;;;5101669;27;1233;-79
2022/06/02 10:29:58;;;;;;;;;;;;;;;;;;5091553;28;1977;-76
2022/06/02 10:32:26;;;;;;;;;;;;;;;;;;5083952;28;1200;-76
2022/06/02 10:35:10;;;;;;;;;;;;;;;;;;5083849;28;1164;-76
2022/06/02 10:37:42;;;;;;;;;;;;;;;;;;5083372;28;1238;-76
2022/06/02 10:40:13;;;;;;;;;;;;;;;;;;5084628;28;1289;-75
2022/06/02 10:42:42;;;;;;;;;;;;;;;;;;5102230;28;1219;-75
2022/06/02 10:45:15;;;;;;;;;;;;;;;;;;5083568;28;1207;-77
2022/06/02 10:47:53;;;;;;;;;;;;;;;;;;5101827;28;1148;-76
2022/06/02 10:50:25;;;;;;;;;;;;;;;;;;5104210;27;1973;-76
2022/06/02 10:53:00;;;;;;;;;;;;;;;;;;5100426;27;1214;-76
2022/06/02 10:55:51;;;;;;;;;;;;;;;;;;5104320;27;1171;-76
2022/06/02 10:58:28;;;;;;;;;;;;;;;;;;5104210;27;1253;-76
2022/06/02 11:01:03;;;;;;;;;;;;;;;;;;5110886;27;1108;-76
2022/06/02 11:03:47;;;;;;;;;;;;;;;;;;5087092;28;1301;-76
2022/06/02 11:06:31;;;;;;;;;;;;;;;;;;5083665;28;1219;-77
2022/06/02 11:09:15;;;;;;;;;;;;;;;;;;5079918;28;2001;-81
2022/06/02 11:11:53;;;;;;;;;;;;;;;;;;5092467;27;1227;-82
2022/06/02 11:14:37;;;;;;;;;;;;;;;;;;5097827;28;1289;-80
2022/06/02 11:17:03;;;;;;;;;;;;;;;;;;5099726;27;1101;-80
2022/06/02 11:19:41;;;;;;;;;;;;;;;;;;5105543;27;1201;-81
2022/06/02 11:22:25;;;;;;;;;;;;;;;;;;5098653;27;1159;-80
2022/06/02 11:25:02;;;;;;;;;;;;;;;;;;5121771;27;1163;-80
2022/06/02 11:27:59;;;;;;;;;;;;;;;;;;5085636;28;1272;-80
2022/06/02 11:30:25;;;;;;;;;;;;;;;;;;5101715;27;1890;-83
2022/06/02 11:32:53;;;;;;;;;;;;;;;;;;5122847;27;1128;-80
2022/06/02 11:35:31;;;;;;;;;;;;;;;;;;5104766;27;1392;-80
2022/06/02 11:38:02;;;;;;;;;;;;;;;;;;5101656;27;1217;-79
2022/06/02 11:40:28;;;;;;;;;;;;;;;;;;5103800;27;1314;-80
2022/06/02 11:43:14;;;;;;;;;;;;;;;;;;5103923;28;1257;-81
2022/06/02 11:45:39;;;;;;;;;;;;;;;;;;5089219;28;1206;-80
2022/06/02 11:48:17;;;;;;;;;;;;;;;;;;5105849;28;1068;-80
2022/06/02 11:51:02;;;;;;;;;;;;;;;;;;5106783;28;1179;-80
2022/06/02 11:53:46;;;;;;;;;;;;;;;;;;5122036;28;1132;-80
2022/06/02 11:56:21;;;;;;;;;;;;;;;;;;5101079;28;1172;-81
2022/06/02 11:59:08;;;;;;;;;;;;;;;;;;5102160;28;1226;-80
2022/06/02 12:01:37;;;;;;;;;;;;;;;;;;5105732;28;1175;-80
2022/06/02 12:04:06;;;;;;;;;;;;;;;;;;5123497;28;1171;-80
2022/06/02 12:06:52;;;;;;;;;;;;;;;;;;5107297;28;1233;-80
2022/06/02 12:09:43;;;;;;;;;;;;;;;;;;5102573;28;2011;-80
2022/06/02 12:12:09;;;;;;;;;;;;;;;;;;5089278;28;1534;-80
2022/06/02 12:14:37;;;;;;;;;;;;;;;;;;5123091;28;1025;-80
2022/06/02 12:17:21;;;;;;;;;;;;;;;;;;5103428;27;1067;-80
2022/06/02 12:19:56;;;;;;;;;;;;;;;;;;5111405;27;1266;-80
2022/06/02 12:22:30;;;;;;;;;;;;;;;;;;5109844;27;1455;-80
2022/06/02 12:25:02;;;;;;;;;;;;;;;;;;5094796;28;1202;-80
2022/06/02 12:27:30;;;;;;;;;;;;;;;;;;5088240;28;1183;-81
2022/06/02 12:30:02;;;;;;;;;;;;;;;;;;5083393;28;1949;-80
2022/06/02 12:32:45;;;;;;;;;;;;;;;;;;5090006;28;1128;-81
2022/06/02 12:35:20;;;;;;;;;;;;;;;;;;5122407;27;1144;-80
2022/06/02 12:37:46;;;;;;;;;;;;;;;;;;5108019;27;1154;-80
2022/06/02 12:40:28;;;;;;;;;;;;;;;;;;5102449;27;1238;-81
2022/06/02 12:43:04;;;;;;;;;;;;;;;;;;5092009;28;1341;-80
2022/06/02 12:45:30;;;;;;;;;;;;;;;;;;5085818;28;1155;-81
2022/06/02 12:47:55;;;;;;;;;;;;;;;;;;5089116;28;1215;-80
2022/06/02 12:50:34;;;;;;;;;;;;;;;;;;5087938;28;1886;-79
2022/06/02 12:53:18;;;;;;;;;;;;;;;;;;5085202;28;1175;-80
2022/06/02 12:55:44;;;;;;;;;;;;;;;;;;5098774;28;873;-80
2022/06/02 12:58:09;;;;;;;;;;;;;;;;;;5088084;28;1424;-80
2022/06/02 13:00:51;;;;;;;;;;;;;;;;;;5085376;28;1210;-80
2022/06/02 13:03:35;;;;;;;;;;;;;;;;;;5089045;28;1254;-80
2022/06/02 13:06:16;;;;;;;;;;;;;;;;;;5088302;28;1277;-80
2022/06/02 13:09:08;;;;;;;;;;;;;;;;;;5105121;28;1984;-80
2022/06/02 13:11:36;;;;;;;;;;;;;;;;;;5085886;28;1268;-80
2022/06/02 13:14:02;;;;;;;;;;;;;;;;;;5083641;28;1239;-79
2022/06/02 13:16:27;;;;;;;;;;;;;;;;;;5086483;28;1218;-81
2022/06/02 13:19:05;;;;;;;;;;;;;;;;;;5104744;28;1180;-78
2022/06/02 13:21:50;;;;;;;;;;;;;;;;;;5088037;28;1263;-78
2022/06/02 13:24:26;;;;;;;;;;;;;;;;;;5115998;27;1073;-80
2022/06/02 13:26:55;;;;;;;;;;;;;;;;;;5106100;27;1424;-80
2022/06/02 13:29:39;;;;;;;;;;;;;;;;;;5094933;28;1961;-81
2022/06/02 13:32:23;;;;;;;;;;;;;;;;;;5102742;28;995;-78
2022/06/02 13:35:07;;;;;;;;;;;;;;;;;;5087361;28;1262;-79
2022/06/02 13:37:39;;;;;;;;;;;;;;;;;;5088506;28;1376;-78
2022/06/02 13:40:15;;;;;;;;;;;;;;;;;;5102849;28;945;-79
2022/06/02 13:42:59;;;;;;;;;;;;;;;;;;5086846;28;1163;-79
2022/06/02 13:45:25;;;;;;;;;;;;;;;;;;5084662;28;1215;-80
2022/06/02 13:48:09;;;;;;;;;;;;;;;;;;5087748;28;1211;-79
2022/06/02 13:50:53;;;;;;;;;;;;;;;;;;5084347;28;1902;-80
2022/06/02 13:53:35;;;;;;;;;;;;;;;;;;5083524;28;1281;-78
2022/06/02 13:59:09;;;;;;;;;;;;;;;;;;5106324;28;1160;-79
2022/06/02 14:01:53;;;;;;;;;;;;;;;;;;5087566;28;1329;-80
2022/06/02 14:04:37;;;;;;;;;;;;;;;;;;5084858;28;1203;-77
2022/06/02 14:07:11;;;;;;;;;;;;;;;;;;5082956;28;1250;-81
2022/06/02 14:09:43;;;;;;;;;;;;;;;;;;5102775;27;1909;-82
2022/06/02 14:12:17;;;;;;;;;;;;;;;;;;5091970;28;1278;-81
2022/06/02 14:15:07;;;;;;;;;;;;;;;;;;5098507;27;1492;-80
2022/06/02 14:17:51;;;;;;;;;;;;;;;;;;5089679;28;1626;-79
2022/06/02 14:20:22;;;;;;;;;;;;;;;;;;5102296;28;1105;-78
2022/06/02 14:22:54;;;;;;;;;;;;;;;;;;5087551;28;1190;-80
2022/06/02 14:25:31;;;;;;;;;;;;;;;;;;5083469;28;1147;-80
2022/06/02 14:28:11;;;;;;;;;;;;;;;;;;5103808;27;1266;-80
2022/06/02 14:30:43;;;;;;;;;;;;;;;;;;5104516;27;1918;-79
2022/06/02 14:33:08;;;;;;;;;;;;;;;;;;5123097;27;1132;-79
2022/06/02 14:35:33;;;;;;;;;;;;;;;;;;5121720;27;1160;-80
2022/06/02 14:38:11;;;;;;;;;;;;;;;;;;5122632;27;1183;-81
2022/06/02 14:40:41;;;;;;;;;;;;;;;;;;5090374;27;1278;-82
2022/06/02 14:43:15;;;;;;;;;;;;;;;;;;5097722;28;1159;-81
2022/06/02 14:45:43;;;;;;;;;;;;;;;;;;5082985;28;1176;-81
2022/06/02 14:48:19;;;;;;;;;;;;;;;;;;5100207;28;1171;-81
2022/06/02 14:50:56;;;;;;;;;;;;;;;;;;5082677;28;1208;-81
2022/06/02 14:53:21;;;;;;;;;;;;;;;;;;5106886;27;1033;-83
2022/06/02 14:55:50;;;;;;;;;;;;;;;;;;5103396;27;1203;-79
2022/06/02 14:58:16;;;;;;;;;;;;;;;;;;5083989;28;1286;-82
2022/06/02 15:00:50;;;;;;;;;;;;;;;;;;5083052;28;1165;-79
2022/06/02 15:03:31;;;;;;;;;;;;;;;;;;5083378;28;1282;-81
2022/06/02 15:05:59;;;;;;;;;;;;;;;;;;5094183;27;1290;-79
2022/06/02 15:08:43;;;;;;;;;;;;;;;;;;5101253;28;1901;-80
2022/06/02 15:11:44;;;;;;;;;;;;;;;;;;5065952;27;1329;-80
2022/06/02 15:14:18;;;;;;;;;;;;;;;;;;5019763;28;1237;-81
2022/06/02 15:16:47;;;;;;;;;;;;;;;;;;5069383;28;1205;-80
2022/06/02 15:19:30;;;;;;;;;;;;;;;;;;5098677;27;1333;-81
2022/06/02 15:22:21;;;;;;;;;;;;;;;;;;5091444;27;1171;-84
2022/06/02 15:25:09;;;;;;;;;;;;;;;;;;5103290;27;1245;-84
2022/06/02 15:27:43;;;;;;;;;;;;;;;;;;5093016;28;1187;-82
2022/06/02 15:30:17;;;;;;;;;;;;;;;;;;5085111;28;1897;-77
2022/06/02 15:33:01;;;;;;;;;;;;;;;;;;5095614;27;1154;-83
2022/06/02 15:35:39;;;;;;;;;;;;;;;;;;5099870;27;1244;-82
2022/06/02 15:38:05;;;;;;;;;;;;;;;;;;5086617;27;1190;-80
2022/06/02 15:41:06;;;;;;;;;;;;;;;;;;5086245;28;1140;-83
2022/06/02 15:43:49;;;;;;;;;;;;;;;;;;5037393;28;1276;-81
2022/06/02 15:46:33;;;;;;;;;;;;;;;;;;5104273;27;1272;-81
2022/06/02 15:49:29;;;;;;;;;;;;;;;;;;5087973;28;1970;-81
2022/06/02 15:51:57;;;;;;;;;;;;;;;;;;5088110;27;1273;-82
2022/06/02 15:54:35;;;;;;;;;;;;;;;;;;5090594;27;1294;-81
2022/06/02 15:57:19;;;;;;;;;;;;;;;;;;5098645;27;1281;-82
2022/06/02 15:59:55;;;;;;;;;;;;;;;;;;5098583;27;1201;-82
2022/06/02 16:02:39;;;;;;;;;;;;;;;;;;5081676;27;1295;-82
2022/06/02 16:05:20;;;;;;;;;;;;;;;;;;5095505;27;1341;-80
2022/06/02 16:08:03;;;;;;;;;;;;;;;;;;5083408;27;1151;-81
2022/06/02 16:13:48;;;;;;;;;;;;;;;;;;5111407;27;958;-81
2022/06/02 16:16:35;;;;;;;;;;;;;;;;;;5091811;28;885;-80
2022/06/02 16:19:20;;;;;;;;;;;;;;;;;;5085299;28;1100;-79
2022/06/02 16:22:04;;;;;;;;;;;;;;;;;;5109635;28;880;-80
2022/06/02 16:24:42;;;;;;;;;;;;;;;;;;5089905;28;1226;-79
2022/06/02 16:27:07;;;;;;;;;;;;;;;;;;5085778;28;1440;-78
2022/06/02 16:29:41;;;;;;;;;;;;;;;;;;5088967;28;1951;-81
2022/06/02 16:32:25;;;;;;;;;;;;;;;;;;5086801;28;1141;-80
2022/06/02 16:35:04;;;;;;;;;;;;;;;;;;5091613;28;1305;-78
2022/06/02 16:37:48;;;;;;;;;;;;;;;;;;5101535;28;854;-79
2022/06/02 16:40:19;;;;;;;;;;;;;;;;;;5106271;28;1033;-78
2022/06/02 16:42:44;;;;;;;;;;;;;;;;;;5093703;27;1285;-78
2022/06/02 16:45:28;;;;;;;;;;;;;;;;;;5133056;27;1219;-78
2022/06/02 16:48:05;;;;;;;;;;;;;;;;;;5106598;27;1191;-79
2022/06/02 16:50:41;;;;;;;;;;;;;;;;;;5103402;28;1914;-78
2022/06/02 16:53:52;;;;;;;;;;;;;;;;;;5109757;27;1186;-78
2022/06/02 16:55:58;;;;;;;;;;;;;;;;;;5109078;27;1119;-78
2022/06/02 16:58:42;;;;;;;;;;;;;;;;;;5093959;27;1136;-79
2022/06/02 17:01:26;;;;;;;;;;;;;;;;;;5109011;27;1198;-77
2022/06/02 17:04:10;;;;;;;;;;;;;;;;;;5109174;27;1344;-78
2022/06/02 17:06:41;;;;;;;;;;;;;;;;;;5107700;27;1368;-78
2022/06/02 17:09:25;;;;;;;;;;;;;;;;;;5106514;27;1973;-78
2022/06/02 17:12:01;;;;;;;;;;;;;;;;;;5106337;27;1361;-78
2022/06/02 17:14:49;;;;;;;;;;;;;;;;;;5097137;28;1507;-78
2022/06/02 17:17:18;;;;;;;;;;;;;;;;;;5083532;28;1349;-78
2022/06/02 17:19:44;;;;;;;;;;;;;;;;;;5109839;27;1293;-78
2022/06/02 17:22:12;;;;;;;;;;;;;;;;;;5104765;27;1336;-78
2022/06/02 17:24:52;;;;;;;;;;;;;;;;;;5127777;27;1199;-78
2022/06/02 17:27:36;;;;;;;;;;;;;;;;;;5104481;27;1182;-78
2022/06/02 17:30:20;;;;;;;;;;;;;;;;;;5108727;27;1890;-78
2022/06/02 17:33:01;;;;;;;;;;;;;;;;;;5124489;27;1129;-79
2022/06/02 17:35:47;;;;;;;;;;;;;;;;;;5106315;27;1214;-79
2022/06/02 17:38:28;;;;;;;;;;;;;;;;;;5108517;27;1254;-78
2022/06/02 17:41:12;;;;;;;;;;;;;;;;;;5107828;27;1193;-79
2022/06/02 17:43:43;;;;;;;;;;;;;;;;;;5127315;27;1009;-79
2022/06/02 17:46:17;;;;;;;;;;;;;;;;;;5107843;27;1191;-78
2022/06/02 17:49:18;;;;;;;;;;;;;;;;;;5107313;27;1989;-78
2022/06/02 17:51:44;;;;;;;;;;;;;;;;;;5044623;28;1224;-79
2022/06/02 17:54:29;;;;;;;;;;;;;;;;;;5090268;27;1244;-78
2022/06/02 17:56:54;;;;;;;;;;;;;;;;;;5096411;27;1304;-78
2022/06/02 17:59:20;;;;;;;;;;;;;;;;;;5100418;28;1261;-80
2022/06/02 18:02:01;;;;;;;;;;;;;;;;;;5089191;28;1226;-80
2022/06/02 18:04:41;;;;;;;;;;;;;;;;;;5085821;28;1212;-80
2022/06/02 18:07:25;;;;;;;;;;;;;;;;;;5085013;28;1294;-78
2022/06/02 18:10:09;;;;;;;;;;;;;;;;;;5102853;28;2677;-79
2022/06/02 18:12:45;;;;;;;;;;;;;;;;;;5093035;27;1382;-79
2022/06/02 18:15:27;;;;;;;;;;;;;;;;;;5102831;27;1244;-77
2022/06/02 18:18:11;;;;;;;;;;;;;;;;;;5103698;27;1471;-78
2022/06/02 18:20:43;;;;;;;;;;;;;;;;;;5105929;27;1292;-78
2022/06/02 18:23:21;;;;;;;;;;;;;;;;;;5104164;27;1204;-78
2022/06/02 18:25:56;;;;;;;;;;;;;;;;;;5100426;27;1170;-78
2022/06/02 18:28:34;;;;;;;;;;;;;;;;;;5096300;28;1183;-77